Time;durP1;ratioP1;P1;durP2;ratioP2;P2;SDS_P1;SDS_P2;PMS_P1;PMS_P2;Temp;Humidity;BMP_temperature;BMP_pressure;BME280_temperature;BME280_humidity;BME280_pressure;Samples;Min_cycle;Max_cycle;Signal;HPM_P1;HPM_P2
2022/11/13 00:01:11;;;;;;;52.13;47.47;;;;;;;5.43;100.00;103066.47;5051153;28;20492;-47
2022/11/13 00:03:39;;;;;;;51.67;47.60;;;;;;;5.49;100.00;103076.63;5051380;28;20474;-50
2022/11/13 00:06:09;;;;;;;61.80;53.37;;;;;;;5.51;100.00;103080.00;5051824;28;20483;-49
2022/11/13 00:08:37;;;;;;;56.43;50.37;;;;;;;5.62;100.00;103074.81;5051919;28;20465;-49
2022/11/13 00:11:07;;;;;;;87.90;55.03;;;;;;;5.68;100.00;103074.38;5051366;28;20439;-50
2022/11/13 00:13:35;;;;;;;86.20;53.00;;;;;;;5.71;100.00;103076.81;5051369;28;20486;-49
2022/11/13 00:16:05;;;;;;;53.93;49.00;;;;;;;5.75;100.00;103070.34;5067165;22;20439;-49
2022/11/13 00:18:35;;;;;;;225.60;64.40;;;;;;;5.78;100.00;103070.13;5022328;28;20452;-48
2022/11/13 00:21:09;;;;;;;91.33;59.90;;;;;;;5.81;100.00;103069.91;5037228;28;20453;-46
2022/11/13 00:23:37;;;;;;;122.97;60.50;;;;;;;5.85;100.00;103066.13;5042120;28;20559;-46
2022/11/13 00:26:07;;;;;;;110.20;67.63;;;;;;;5.84;100.00;103064.41;5051088;28;20435;-47
2022/11/13 00:28:35;;;;;;;140.07;62.10;;;;;;;5.85;100.00;103057.31;5051229;28;20525;-51
2022/11/13 00:31:05;;;;;;;100.63;57.57;;;;;;;5.84;100.00;103063.53;5051094;28;20552;-49
2022/11/13 00:33:33;;;;;;;52.37;47.93;;;;;;;5.82;100.00;103061.03;5053132;28;21263;-49
2022/11/13 00:36:26;;;;;;;90.07;53.90;;;;;;;5.78;100.00;103067.47;5055031;28;20534;-46
2022/11/13 00:38:55;;;;;;;71.93;53.83;;;;;;;5.73;100.00;103059.03;5055207;28;20529;-46
2022/11/13 00:41:24;;;;;;;63.50;51.27;;;;;;;5.70;100.00;103059.25;5053651;28;20443;-49
2022/11/13 00:43:53;;;;;;;58.80;52.53;;;;;;;5.66;100.00;103059.56;5054823;28;20486;-51
2022/11/13 00:46:21;;;;;;;59.63;53.70;;;;;;;5.58;100.00;103055.63;5055073;28;20466;-47
2022/11/13 00:48:51;;;;;;;56.03;49.40;;;;;;;5.52;100.00;103061.41;5055462;28;20445;-49
2022/11/13 00:51:19;;;;;;;52.60;47.53;;;;;;;5.49;100.00;103050.16;5054647;28;20419;-47
2022/11/13 00:53:48;;;;;;;49.90;45.83;;;;;;;5.47;100.00;103049.41;5055014;28;20526;-47
2022/11/13 00:56:15;;;;;;;49.57;45.43;;;;;;;5.45;100.00;103046.88;5054834;28;20453;-48
2022/11/13 00:58:43;;;;;;;57.87;47.10;;;;;;;5.42;100.00;103039.16;5054609;28;20921;-46
2022/11/13 01:01:13;;;;;;;50.67;46.47;;;;;;;5.44;100.00;103046.97;5054443;28;20976;-49
2022/11/13 01:03:42;;;;;;;53.80;49.43;;;;;;;5.42;100.00;103040.97;5054001;28;20562;-46
2022/11/13 01:06:12;;;;;;;51.17;47.17;;;;;;;5.42;100.00;103054.19;5054394;28;20723;-47
2022/11/13 01:08:40;;;;;;;50.43;46.73;;;;;;;5.43;100.00;103045.31;5054736;28;20526;-46
2022/11/13 01:11:13;;;;;;;49.67;45.90;;;;;;;5.44;100.00;103044.31;5054251;28;20471;-50
2022/11/13 01:13:43;;;;;;;51.27;47.07;;;;;;;5.47;100.00;103046.75;5054132;28;20436;-46
2022/11/13 01:16:13;;;;;;;51.73;48.00;;;;;;;5.50;100.00;103046.53;5054524;28;20477;-46
2022/11/13 01:18:42;;;;;;;50.83;47.10;;;;;;;5.56;100.00;103046.13;5054863;28;20485;-50
2022/11/13 01:21:11;;;;;;;52.83;48.87;;;;;;;5.58;100.00;103045.06;5049211;28;20432;-47
2022/11/13 01:23:40;;;;;;;55.30;50.53;;;;;;;5.59;100.00;103040.59;5045662;28;20839;-46
2022/11/13 01:26:12;;;;;;;52.73;48.90;;;;;;;5.56;100.00;103031.09;5054783;28;20419;-49
2022/11/13 01:28:43;;;;;;;53.37;48.20;;;;;;;5.57;100.00;103013.41;5054679;28;20614;-47
2022/11/13 01:31:15;;;;;;;54.17;49.27;;;;;;;5.57;100.00;103018.72;5054320;28;20427;-46
2022/11/13 01:33:45;;;;;;;53.13;48.73;;;;;;;5.59;100.00;103012.34;5031483;28;20482;-47
2022/11/13 01:36:15;;;;;;;50.33;46.53;;;;;;;5.60;100.00;103013.19;5054202;28;20424;-47
2022/11/13 01:38:43;;;;;;;49.97;46.07;;;;;;;5.58;100.00;103008.00;5054356;28;20538;-46
2022/11/13 01:41:18;;;;;;;50.20;46.47;;;;;;;5.55;100.00;103008.22;5053701;28;20932;-48
2022/11/13 01:43:51;;;;;;;50.23;46.67;;;;;;;5.55;100.00;103015.34;5052295;28;20481;-47
2022/11/13 01:46:24;;;;;;;50.23;46.73;;;;;;;5.52;100.00;103016.41;5053983;28;20547;-46
2022/11/13 01:48:58;;;;;;;52.57;48.50;;;;;;;5.51;100.00;103014.69;5053988;28;20447;-47
2022/11/13 01:51:31;;;;;;;55.77;51.07;;;;;;;5.57;100.00;103016.06;5053928;28;20964;-46
2022/11/13 01:54:02;;;;;;;53.30;49.40;;;;;;;5.57;100.00;103014.25;5050563;28;20467;-48
2022/11/13 01:56:32;;;;;;;49.10;45.43;;;;;;;5.56;100.00;103009.91;5043661;28;20498;-48
2022/11/13 01:59:06;;;;;;;60.57;54.30;;;;;;;5.58;100.00;103010.66;5053782;28;20463;-47
2022/11/13 02:01:34;;;;;;;55.17;50.83;;;;;;;5.55;100.00;102999.44;5053475;28;20492;-47
2022/11/13 02:04:02;;;;;;;53.80;49.50;;;;;;;5.56;100.00;102994.03;5052898;28;20509;-47
2022/11/13 02:06:36;;;;;;;53.30;49.20;;;;;;;5.53;100.00;102988.09;5053392;28;20444;-48
2022/11/13 02:09:05;;;;;;;54.83;50.63;;;;;;;5.50;100.00;102994.47;5053696;28;20510;-47
2022/11/13 02:11:35;;;;;;;52.67;48.43;;;;;;;5.49;100.00;102989.31;5053475;28;20463;-48
2022/11/13 02:14:04;;;;;;;52.57;48.63;;;;;;;5.46;100.00;102986.88;5052951;28;20494;-47
2022/11/13 02:16:35;;;;;;;54.20;49.90;;;;;;;5.45;100.00;102990.47;5053349;28;20550;-50
2022/11/13 02:19:16;;;;;;;63.00;57.40;;;;;;;5.45;100.00;102993.09;5053476;28;20554;-46
2022/11/13 02:21:52;;;;;;;59.97;55.00;;;;;;;5.49;100.00;102982.22;5044589;28;20436;-48
2022/11/13 02:24:25;;;;;;;58.63;53.77;;;;;;;5.54;100.00;102985.38;5049163;28;20466;-47
2022/11/13 02:26:56;;;;;;;57.27;52.43;;;;;;;5.55;100.00;102984.41;5053469;28;20482;-47
2022/11/13 02:29:24;;;;;;;55.67;50.80;;;;;;;5.53;100.00;102975.72;5053220;28;20423;-50
2022/11/13 02:31:52;;;;;;;57.33;52.60;;;;;;;5.51;100.00;102967.06;5053110;28;20435;-47
2022/11/13 02:34:20;;;;;;;53.47;49.13;;;;;;;5.50;100.00;102970.66;5052301;28;20459;-48
2022/11/13 02:36:49;;;;;;;57.13;52.27;;;;;;;5.52;100.00;102966.13;5052902;28;20555;-49
2022/11/13 02:39:17;;;;;;;57.87;52.83;;;;;;;5.56;100.00;102969.38;5053015;28;20440;-47
2022/11/13 02:41:46;;;;;;;56.60;51.90;;;;;;;5.59;100.00;102969.16;5052934;28;20486;-47
2022/11/13 02:44:14;;;;;;;55.63;50.97;;;;;;;5.58;100.00;102970.94;5051981;28;21012;-47
2022/11/13 02:46:42;;;;;;;52.93;48.73;;;;;;;5.55;100.00;102968.50;5052878;28;20866;-48
2022/11/13 02:49:10;;;;;;;56.83;52.23;;;;;;;5.53;100.00;102962.50;5052822;28;20439;-48
2022/11/13 02:51:38;;;;;;;56.70;52.30;;;;;;;5.56;100.00;102964.06;5052514;28;20427;-47
2022/11/13 02:54:06;;;;;;;56.17;51.57;;;;;;;5.57;100.00;102976.34;5052060;28;20549;-48
2022/11/13 02:56:38;;;;;;;57.97;53.43;;;;;;;5.57;100.00;102971.91;5052602;28;20443;-48
2022/11/13 02:59:08;;;;;;;59.70;55.00;;;;;;;5.60;100.00;102965.56;5052653;28;20442;-47
2022/11/13 03:01:36;;;;;;;59.43;54.47;;;;;;;5.61;100.00;102958.47;5052472;28;20432;-47
2022/11/13 03:04:04;;;;;;;57.10;52.50;;;;;;;5.63;100.00;102951.25;5051869;28;20468;-46
2022/11/13 03:06:32;;;;;;;58.70;53.97;;;;;;;5.62;100.00;102954.84;5052696;28;20547;-49
2022/11/13 03:09:00;;;;;;;58.60;53.57;;;;;;;5.62;100.00;102955.69;5052400;28;20785;-48
2022/11/13 03:11:28;;;;;;;56.83;51.93;;;;;;;5.61;100.00;102953.16;5052648;28;20427;-49
2022/11/13 03:13:56;;;;;;;59.57;54.60;;;;;;;5.62;100.00;102950.41;5052527;28;20884;-48
2022/11/13 03:16:26;;;;;;;56.37;51.57;;;;;;;5.62;100.00;102938.97;5052173;28;20459;-48
2022/11/13 03:18:55;;;;;;;60.30;54.83;;;;;;;5.61;100.00;102938.13;5052192;28;20477;-49
2022/11/13 03:21:24;;;;;;;59.30;54.10;;;;;;;5.61;100.00;102929.34;5046021;28;20850;-47
2022/11/13 03:23:54;;;;;;;58.23;52.80;;;;;;;5.62;100.00;102934.50;5044115;28;20459;-49
2022/11/13 03:26:22;;;;;;;57.97;53.60;;;;;;;5.61;100.00;102927.56;5051836;28;20567;-51
2022/11/13 03:28:50;;;;;;;56.63;51.97;;;;;;;5.63;100.00;102922.97;5052129;28;20539;-48
2022/11/13 03:31:19;;;;;;;54.07;49.87;;;;;;;5.64;100.00;102919.38;5052177;28;20526;-47
2022/11/13 03:33:49;;;;;;;57.70;53.03;;;;;;;5.67;100.00;102915.66;5051449;28;20451;-49
2022/11/13 03:36:17;;;;;;;56.47;51.80;;;;;;;5.67;100.00;102918.31;5051823;28;20479;-48
2022/11/13 03:38:45;;;;;;;56.93;52.37;;;;;;;5.68;100.00;102915.53;5052080;28;20438;-47
2022/11/13 03:41:14;;;;;;;59.57;54.57;;;;;;;5.68;100.00;102904.09;5051866;28;20805;-50
2022/11/13 03:43:42;;;;;;;56.00;51.07;;;;;;;5.69;100.00;102909.31;5051225;28;20513;-50
2022/11/13 03:46:10;;;;;;;54.90;50.60;;;;;;;5.72;100.00;102917.03;5051574;28;20574;-47
2022/11/13 03:48:38;;;;;;;57.37;52.77;;;;;;;5.73;100.00;102908.13;5051829;28;20435;-48
2022/11/13 03:51:08;;;;;;;56.87;52.30;;;;;;;5.73;100.00;102916.06;5051802;28;20435;-47
2022/11/13 03:53:36;;;;;;;56.50;51.80;;;;;;;5.75;100.00;102916.78;5051056;28;20920;-51
2022/11/13 03:56:05;;;;;;;52.93;48.90;;;;;;;5.76;100.00;102920.28;5051787;28;20571;-47
2022/11/13 03:58:33;;;;;;;55.70;51.40;;;;;;;5.78;100.00;102915.72;5051974;28;20470;-49
2022/11/13 04:01:06;;;;;;;58.67;53.73;;;;;;;5.80;100.00;102921.75;5051298;28;20424;-47
2022/11/13 04:03:35;;;;;;;55.27;50.37;;;;;;;5.78;100.00;102911.28;5051042;28;21256;-49
2022/11/13 04:06:03;;;;;;;56.80;52.10;;;;;;;5.81;100.00;102910.19;5051255;28;21023;-49
2022/11/13 04:08:32;;;;;;;57.87;53.30;;;;;;;5.79;100.00;102912.97;5054361;28;20944;-48
2022/11/13 04:11:06;;;;;;;56.50;51.87;;;;;;;5.80;100.00;102898.75;5055533;28;20527;-47
2022/11/13 04:13:34;;;;;;;58.87;54.20;;;;;;;5.80;100.00;102890.81;5054939;28;20463;-50
2022/11/13 04:16:02;;;;;;;57.20;52.40;;;;;;;5.81;100.00;102897.81;5055635;28;20427;-48
2022/11/13 04:18:31;;;;;;;57.33;52.57;;;;;;;5.82;100.00;102886.28;5055562;28;20474;-47
2022/11/13 04:20:59;;;;;;;58.07;53.27;;;;;;;5.82;100.00;102886.28;5050023;28;20478;-47
2022/11/13 04:23:27;;;;;;;55.87;51.10;;;;;;;5.83;100.00;102873.84;5046633;28;20476;-48
2022/11/13 04:25:57;;;;;;;57.37;52.23;;;;;;;5.82;100.00;102891.56;5055192;28;20499;-47
2022/11/13 04:28:26;;;;;;;59.53;54.20;;;;;;;5.83;100.00;102889.75;5055450;28;20459;-47
2022/11/13 04:30:55;;;;;;;55.27;50.57;;;;;;;5.81;100.00;102881.94;5055060;28;20776;-48
2022/11/13 04:33:23;;;;;;;56.47;52.07;;;;;;;5.82;100.00;102882.78;5054525;28;20459;-47
2022/11/13 04:35:51;;;;;;;57.87;53.03;;;;;;;5.84;100.00;102880.84;5055335;28;20497;-47
2022/11/13 04:38:19;;;;;;;57.20;52.90;;;;;;;5.85;100.00;102883.44;5054839;28;21029;-48
2022/11/13 04:40:49;;;;;;;58.03;52.67;;;;;;;5.86;100.00;102879.81;5054685;28;21031;-50
2022/11/13 04:43:18;;;;;;;57.23;52.17;;;;;;;5.86;100.00;102877.16;5054509;28;20563;-49
2022/11/13 04:45:46;;;;;;;58.03;53.30;;;;;;;5.84;100.00;102879.06;5055075;28;20529;-49
2022/11/13 04:48:14;;;;;;;55.30;50.80;;;;;;;5.85;100.00;102872.84;5055100;28;20871;-50
2022/11/13 04:50:42;;;;;;;56.00;51.50;;;;;;;5.85;100.00;102869.31;5054992;28;20538;-50
2022/11/13 04:53:10;;;;;;;55.33;50.83;;;;;;;5.82;100.00;102870.38;5054159;28;20555;-47
2022/11/13 04:55:37;;;;;;;57.40;52.70;;;;;;;5.83;100.00;102865.91;5054972;28;20530;-49
2022/11/13 04:58:05;;;;;;;59.80;54.37;;;;;;;5.86;100.00;102866.56;5054594;28;20439;-47
2022/11/13 05:00:35;;;;;;;60.57;55.27;;;;;;;5.85;100.00;102864.91;5054759;28;20948;-47
2022/11/13 05:03:03;;;;;;;58.10;53.00;;;;;;;5.85;100.00;102869.31;5054019;28;20868;-49
2022/11/13 05:05:31;;;;;;;56.13;51.40;;;;;;;5.84;100.00;102859.66;5054454;28;20471;-48
2022/11/13 05:07:59;;;;;;;56.83;52.47;;;;;;;5.83;100.00;102857.97;5054687;28;20538;-49
2022/11/13 05:10:27;;;;;;;57.30;52.73;;;;;;;5.84;100.00;102864.97;5054478;28;20420;-52
2022/11/13 05:12:56;;;;;;;58.43;53.07;;;;;;;5.84;100.00;102860.50;5053636;28;20467;-48
2022/11/13 05:15:24;;;;;;;57.13;52.37;;;;;;;5.86;100.00;102860.41;5054577;28;20533;-50
2022/11/13 05:17:54;;;;;;;55.83;51.60;;;;;;;5.85;100.00;102856.94;5054244;28;20509;-48
2022/11/13 05:20:21;;;;;;;60.03;55.17;;;;;;;5.82;100.00;102859.78;5047912;28;20436;-47
2022/11/13 05:22:49;;;;;;;57.73;53.10;;;;;;;5.80;100.00;102853.75;5045388;28;20455;-51
2022/11/13 05:25:17;;;;;;;54.37;49.83;;;;;;;5.75;100.00;102845.31;5054202;28;20494;-50
2022/11/13 05:27:45;;;;;;;57.83;52.80;;;;;;;5.72;100.00;102849.97;5054307;28;20553;-50
2022/11/13 05:30:13;;;;;;;58.03;52.53;;;;;;;5.74;100.00;102853.34;5054338;28;20441;-47
2022/11/13 05:32:41;;;;;;;59.17;54.27;;;;;;;5.74;100.00;102848.06;5053200;28;20460;-52
2022/11/13 05:35:10;;;;;;;59.23;54.00;;;;;;;5.75;100.00;102850.59;5054286;28;20442;-48
2022/11/13 05:37:38;;;;;;;60.03;54.87;;;;;;;5.75;100.00;102841.81;5053884;28;21024;-48
2022/11/13 05:40:07;;;;;;;60.33;54.73;;;;;;;5.74;100.00;102838.31;5054065;28;20486;-48
2022/11/13 05:42:35;;;;;;;58.17;53.20;;;;;;;5.74;100.00;102846.25;5053211;28;20477;-48
2022/11/13 05:45:04;;;;;;;62.93;56.83;;;;;;;5.70;100.00;102843.97;5053747;28;20501;-49
2022/11/13 05:47:39;;;;;;;59.70;54.60;;;;;;;5.67;100.00;102842.41;5053811;28;20844;-50
2022/11/13 05:50:17;;;;;;;58.30;53.40;;;;;;;5.61;100.00;102836.72;5052113;28;20435;-48
2022/11/13 05:52:44;;;;;;;59.67;54.27;;;;;;;5.53;100.00;102831.97;5052713;28;20489;-49
2022/11/13 05:55:12;;;;;;;61.30;55.10;;;;;;;5.50;100.00;102835.69;5053722;28;20435;-48
2022/11/13 05:57:40;;;;;;;59.37;54.27;;;;;;;5.51;100.00;102839.19;5053588;28;20560;-48
2022/11/13 06:00:13;;;;;;;61.90;55.90;;;;;;;5.52;100.00;102849.69;5054133;28;20439;-51
2022/11/13 06:02:48;;;;;;;59.23;54.07;;;;;;;5.55;100.00;102848.59;5052110;28;20521;-51
2022/11/13 06:05:18;;;;;;;59.23;54.30;;;;;;;5.56;100.00;102843.19;5053604;28;20439;-52
2022/11/13 06:07:49;;;;;;;59.97;55.10;;;;;;;5.57;100.00;102852.81;5053492;28;20465;-50
2022/11/13 06:10:17;;;;;;;59.43;54.00;;;;;;;5.59;100.00;102855.34;5053322;28;20431;-49
2022/11/13 06:12:45;;;;;;;57.97;52.57;;;;;;;5.54;100.00;102854.84;5052542;28;20545;-48
2022/11/13 06:15:13;;;;;;;60.50;55.00;;;;;;;5.47;100.00;102848.28;5053417;28;20522;-49
2022/11/13 06:17:45;;;;;;;59.10;53.60;;;;;;;5.47;100.00;102853.59;5053100;28;20509;-47
2022/11/13 06:20:18;;;;;;;59.80;54.30;;;;;;;5.47;100.00;102850.94;5053960;28;20505;-48
2022/11/13 06:22:52;;;;;;;60.60;55.50;;;;;;;5.47;100.00;102849.13;5040289;28;20467;-47
2022/11/13 06:25:20;;;;;;;62.50;56.80;;;;;;;5.48;100.00;102853.50;5033766;28;20475;-49
2022/11/13 06:27:48;;;;;;;60.90;55.43;;;;;;;5.48;100.00;102847.34;5032828;28;21003;-48
2022/11/13 06:30:16;;;;;;;58.83;53.80;;;;;;;5.49;100.00;102843.75;5032310;28;20440;-47
2022/11/13 06:32:44;;;;;;;61.77;55.83;;;;;;;5.49;100.00;102852.53;5032404;28;20458;-49
2022/11/13 06:35:12;;;;;;;60.80;55.07;;;;;;;5.50;100.00;102861.31;5033023;28;20425;-47
2022/11/13 06:37:52;;;;;;;64.37;58.50;;;;;;;5.51;100.00;102855.06;5033565;28;20507;-48
2022/11/13 06:40:22;;;;;;;70.20;64.10;;;;;;;5.52;100.00;102854.97;5033398;28;20829;-48
2022/11/13 06:42:50;;;;;;;68.80;63.07;;;;;;;5.52;100.00;102860.25;5032479;28;20564;-50
2022/11/13 06:45:18;;;;;;;73.93;67.47;;;;;;;5.49;100.00;102849.06;5032795;28;20539;-49
2022/11/13 06:47:46;;;;;;;69.27;63.23;;;;;;;5.47;100.00;102846.50;5032945;28;20985;-49
2022/11/13 06:50:14;;;;;;;70.87;64.63;;;;;;;5.42;100.00;102847.78;5033638;28;20474;-48
2022/11/13 06:52:42;;;;;;;66.43;61.23;;;;;;;5.40;100.00;102840.00;5032564;28;20461;-51
2022/11/13 06:55:09;;;;;;;68.10;62.07;;;;;;;5.42;100.00;102850.44;5009823;28;20502;-51
2022/11/13 06:57:39;;;;;;;80.40;73.13;;;;;;;5.42;100.00;102856.59;5032423;28;21181;-49
2022/11/13 07:00:08;;;;;;;79.80;72.40;;;;;;;5.45;100.00;102856.34;5030726;28;20506;-49
2022/11/13 07:02:36;;;;;;;71.40;64.57;;;;;;;5.49;100.00;102859.63;5033502;28;20472;-48
2022/11/13 07:05:04;;;;;;;74.33;67.93;;;;;;;5.51;100.00;102863.00;5039783;28;20431;-49
2022/11/13 07:07:33;;;;;;;71.17;64.57;;;;;;;5.53;100.00;102859.28;5044172;28;20903;-47
2022/11/13 07:10:01;;;;;;;71.73;64.67;;;;;;;5.57;100.00;102859.91;5029394;28;20968;-47
2022/11/13 07:12:29;;;;;;;67.90;61.90;;;;;;;5.62;100.00;102855.09;5052375;28;20502;-47
2022/11/13 07:14:58;;;;;;;70.80;64.50;;;;;;;5.67;100.00;102850.34;5047753;28;20526;-47
2022/11/13 07:17:28;;;;;;;73.20;66.53;;;;;;;5.69;100.00;102847.56;5040470;28;20467;-48
2022/11/13 07:19:56;;;;;;;71.23;64.93;;;;;;;5.74;100.00;102853.34;5012981;28;20493;-51
2022/11/13 07:22:24;;;;;;;69.67;63.70;;;;;;;5.77;100.00;102853.97;5041932;28;20521;-49
2022/11/13 07:24:51;;;;;;;69.60;63.60;;;;;;;5.82;100.00;102862.44;5032132;28;20428;-48
2022/11/13 07:27:19;;;;;;;70.53;64.20;;;;;;;5.90;100.00;102865.38;5039716;28;20475;-51
2022/11/13 07:29:46;;;;;;;70.40;64.60;;;;;;;5.98;100.00;102864.78;5035645;28;20432;-48
2022/11/13 07:32:15;;;;;;;67.10;61.00;;;;;;;6.07;100.00;102859.66;5051269;28;20466;-49
2022/11/13 07:34:43;;;;;;;68.67;62.47;;;;;;;6.13;100.00;102867.16;5051845;28;20480;-50
2022/11/13 07:37:11;;;;;;;69.27;62.67;;;;;;;6.22;100.00;102875.34;5044651;28;20968;-50
2022/11/13 07:39:38;;;;;;;67.63;61.40;;;;;;;6.29;100.00;102873.94;5043315;28;20438;-49
2022/11/13 07:42:06;;;;;;;68.03;61.33;;;;;;;6.34;100.00;102869.97;5050251;28;20455;-51
2022/11/13 07:44:34;;;;;;;70.83;64.67;;;;;;;6.40;100.00;102871.28;5051437;28;20438;-48
2022/11/13 07:47:22;;;;;;;68.37;61.87;;;;;;;6.46;100.00;102862.88;5051436;28;20510;-47
2022/11/13 07:49:50;;;;;;;73.17;66.00;;;;;;;6.54;100.00;102868.44;5051697;28;20427;-48
2022/11/13 07:52:17;;;;;;;65.30;59.10;;;;;;;6.60;100.00;102871.44;5045492;28;20455;-47
2022/11/13 07:54:45;;;;;;;68.60;61.80;;;;;;;6.65;100.00;102874.59;5035461;28;20828;-49
2022/11/13 07:57:14;;;;;;;69.53;63.03;;;;;;;6.73;100.00;102881.94;5051031;28;20455;-47
2022/11/13 07:59:42;;;;;;;65.87;59.93;;;;;;;6.79;100.00;102881.47;5051483;28;20443;-47
2022/11/13 08:02:15;;;;;;;68.70;61.60;;;;;;;6.84;100.00;102876.63;5050385;28;20473;-48
2022/11/13 08:04:44;;;;;;;65.10;58.40;;;;;;;6.93;100.00;102870.59;5051330;28;20470;-46
2022/11/13 08:07:12;;;;;;;66.53;60.33;;;;;;;6.92;100.00;102871.59;5046967;28;20914;-47
2022/11/13 08:09:40;;;;;;;63.20;57.37;;;;;;;7.02;100.00;102882.28;5043397;28;20506;-49
2022/11/13 08:12:08;;;;;;;66.20;59.90;;;;;;;7.10;100.00;102877.25;5050086;28;20466;-48
2022/11/13 08:14:36;;;;;;;61.17;56.00;;;;;;;7.14;100.00;102881.31;5051441;28;20489;-52
2022/11/13 08:17:04;;;;;;;59.40;54.10;;;;;;;7.23;100.00;102877.94;5051305;28;20477;-47
2022/11/13 08:19:32;;;;;;;60.33;54.83;;;;;;;7.33;100.00;102888.66;5051471;28;20431;-48
2022/11/13 08:22:01;;;;;;;62.80;57.33;;;;;;;7.37;100.00;102879.50;5040002;28;20457;-50
2022/11/13 08:24:28;;;;;;;61.20;55.80;;;;;;;7.46;100.00;102871.63;5049073;28;20439;-47
2022/11/13 08:26:57;;;;;;;61.23;55.40;;;;;;;7.54;100.00;102881.63;5050672;28;20475;-49
2022/11/13 08:29:26;;;;;;;60.33;55.03;;;;;;;7.59;100.00;102877.63;5051280;28;20999;-48
2022/11/13 08:31:54;;;;;;;59.63;54.23;;;;;;;7.59;100.00;102877.63;5034626;28;20973;-47
2022/11/13 08:34:23;;;;;;;58.60;53.37;;;;;;;7.59;100.00;102874.97;5040000;28;20440;-49
2022/11/13 08:36:51;;;;;;;61.67;55.67;;;;;;;7.69;100.00;102872.41;5042961;28;20450;-48
2022/11/13 08:39:21;;;;;;;58.90;53.43;;;;;;;7.76;100.00;102865.63;5048588;28;20435;-49
2022/11/13 08:41:50;;;;;;;57.97;52.77;;;;;;;7.87;100.00;102862.06;5030269;28;20492;-47
2022/11/13 08:44:18;;;;;;;59.60;54.63;;;;;;;7.95;100.00;102859.59;5030716;28;20520;-47
2022/11/13 08:46:47;;;;;;;57.73;52.80;;;;;;;8.03;100.00;102862.50;5027866;28;20551;-51
2022/11/13 08:49:15;;;;;;;60.23;55.23;;;;;;;8.15;100.00;102864.13;5031579;28;20481;-49
2022/11/13 08:51:42;;;;;;;60.80;55.70;;;;;;;8.26;100.00;102867.56;5029461;28;20472;-50
2022/11/13 08:54:10;;;;;;;57.50;52.77;;;;;;;8.41;100.00;102869.91;5025310;28;20433;-48
2022/11/13 08:56:40;;;;;;;58.77;53.70;;;;;;;8.47;100.00;102864.06;5014687;28;20449;-51
2022/11/13 08:59:10;;;;;;;55.50;50.80;;;;;;;8.52;100.00;102854.72;5030246;28;20510;-48
2022/11/13 09:01:38;;;;;;;57.37;52.37;;;;;;;8.59;100.00;102855.88;5029550;28;20467;-51
2022/11/13 09:04:07;;;;;;;55.83;50.73;;;;;;;8.70;100.00;102868.22;5034084;28;20472;-49
2022/11/13 09:06:35;;;;;;;56.13;51.33;;;;;;;8.77;100.00;102858.75;5032200;28;20452;-51
2022/11/13 09:09:05;;;;;;;57.03;52.13;;;;;;;8.91;100.00;102847.75;5032717;28;20507;-48
2022/11/13 09:11:33;;;;;;;57.57;52.60;;;;;;;8.91;100.00;102847.75;5031521;28;20464;-49
2022/11/13 09:14:02;;;;;;;56.30;50.77;;;;;;;8.92;100.00;102838.78;5031491;28;20428;-53
2022/11/13 09:16:30;;;;;;;56.47;51.90;;;;;;;8.99;100.00;102839.09;5031580;28;20514;-47
2022/11/13 09:18:57;;;;;;;56.10;50.90;;;;;;;9.06;100.00;102835.75;5030177;28;20432;-51
2022/11/13 09:21:25;;;;;;;56.80;52.03;;;;;;;9.05;100.00;102826.06;5032176;28;20459;-46
2022/11/13 09:23:52;;;;;;;58.40;53.77;;;;;;;9.15;100.00;102834.09;5032273;28;20433;-48
2022/11/13 09:26:20;;;;;;;59.40;54.30;;;;;;;9.21;100.00;102838.88;5032569;28;20896;-52
2022/11/13 09:28:48;;;;;;;55.53;51.10;;;;;;;9.23;100.00;102835.09;5031560;28;20522;-49
2022/11/13 09:31:17;;;;;;;55.87;51.57;;;;;;;9.32;100.00;102841.41;5032230;28;20513;-52
2022/11/13 09:33:44;;;;;;;57.27;52.50;;;;;;;9.39;100.00;102830.09;5032833;28;20747;-52
2022/11/13 09:36:14;;;;;;;57.10;52.40;;;;;;;9.39;100.00;102832.75;5033562;28;20428;-48
2022/11/13 09:38:42;;;;;;;53.60;49.40;;;;;;;9.56;100.00;102835.72;5031897;28;20424;-53
2022/11/13 09:41:12;;;;;;;56.77;52.13;;;;;;;9.70;100.00;102835.28;5031596;28;20999;-50
2022/11/13 09:43:44;;;;;;;58.27;53.37;;;;;;;9.84;100.00;102838.38;5031590;28;20490;-52
2022/11/13 09:46:20;;;;;;;56.67;51.73;;;;;;;9.87;100.00;102848.75;5032520;28;20428;-50
2022/11/13 09:48:52;;;;;;;54.97;50.67;;;;;;;10.08;100.00;102843.25;5031331;28;20471;-51
2022/11/13 09:51:24;;;;;;;55.37;50.93;;;;;;;10.26;100.00;102844.25;5030770;28;20461;-51
2022/11/13 09:53:52;;;;;;;55.87;51.30;;;;;;;10.28;100.00;102839.59;5031753;28;20841;-52
2022/11/13 09:56:28;;;;;;;57.30;52.60;;;;;;;10.43;100.00;102837.31;5032003;28;20595;-50
2022/11/13 09:59:05;;;;;;;55.00;50.40;;;;;;;10.52;100.00;102834.63;5031560;28;20924;-51
2022/11/13 10:01:43;;;;;;;55.27;50.60;;;;;;;10.60;100.00;102825.06;5025780;28;20455;-50
2022/11/13 10:04:14;;;;;;;53.90;49.70;;;;;;;10.81;100.00;102829.16;5031834;28;20582;-48
2022/11/13 10:06:58;;;;;;;53.17;49.37;;;;;;;10.96;100.00;102824.22;5031939;28;20456;-50
2022/11/13 10:09:36;;;;;;;53.30;48.90;;;;;;;11.19;100.00;102824.63;5032479;28;20510;-50
2022/11/13 10:12:07;;;;;;;52.63;48.73;;;;;;;11.21;100.00;102826.16;5032253;28;21404;-53
2022/11/13 10:14:38;;;;;;;54.47;50.00;;;;;;;11.32;100.00;102825.94;5031846;28;20440;-47
2022/11/13 10:17:15;;;;;;;54.30;50.07;;;;;;;11.48;100.00;102817.25;5030114;28;20517;-48
2022/11/13 10:19:53;;;;;;;53.80;49.87;;;;;;;11.45;100.00;102826.41;5031637;28;20933;-49
2022/11/13 10:22:26;;;;;;;53.77;49.80;;;;;;;11.50;100.00;102826.78;5036856;28;20992;-49
2022/11/13 10:25:11;;;;;;;51.20;47.60;;;;;;;11.62;100.00;102828.25;5052378;28;20990;-47
2022/11/13 10:27:41;;;;;;;54.43;50.43;;;;;;;11.64;100.00;102817.41;5052146;28;20455;-50
2022/11/13 10:30:15;;;;;;;53.73;49.50;;;;;;;11.70;100.00;102821.34;5036512;28;20948;-48
2022/11/13 10:32:46;;;;;;;51.70;47.90;;;;;;;11.80;100.00;102820.25;5028887;28;20471;-48
2022/11/13 10:35:32;;;;;;;53.97;50.00;;;;;;;11.78;100.00;102824.06;5035378;28;20497;-46
2022/11/13 10:38:03;;;;;;;53.73;50.00;;;;;;;11.80;100.00;102814.91;5036981;28;20470;-46
2022/11/13 10:40:38;;;;;;;55.10;50.90;;;;;;;12.02;100.00;102818.94;5031186;28;20431;-47
2022/11/13 10:43:13;;;;;;;51.67;47.73;;;;;;;11.91;100.00;102816.50;5030280;28;20469;-47
2022/11/13 10:45:40;;;;;;;54.67;50.53;;;;;;;11.91;100.00;102812.00;5031258;28;20423;-50
2022/11/13 10:48:20;;;;;;;53.23;49.47;;;;;;;11.92;100.00;102807.47;5030669;28;20480;-46
2022/11/13 10:50:58;;;;;;;52.90;49.10;;;;;;;11.96;100.00;102806.19;5030550;28;20424;-47
2022/11/13 10:53:30;;;;;;;53.90;50.10;;;;;;;11.70;100.00;102805.31;5030292;28;20463;-50
2022/11/13 10:56:00;;;;;;;54.83;50.70;;;;;;;11.58;100.00;102810.00;5031181;28;20571;-47
2022/11/13 10:58:28;;;;;;;54.47;50.30;;;;;;;11.41;100.00;102802.84;5029896;28;20432;-46
2022/11/13 11:00:57;;;;;;;54.50;50.50;;;;;;;11.18;100.00;102806.91;5030181;28;20425;-51
2022/11/13 11:03:28;;;;;;;53.20;49.50;;;;;;;11.08;100.00;102804.28;5027130;28;20502;-49
2022/11/13 11:05:57;;;;;;;54.30;50.30;;;;;;;10.95;100.00;102799.34;5031250;28;20483;-50
2022/11/13 11:08:29;;;;;;;55.50;51.30;;;;;;;10.77;100.00;102798.44;5030717;28;20472;-50
2022/11/13 11:13:45;;;;;;;56.13;51.93;;;;;;;10.46;100.00;102787.19;5029938;28;20860;-51
2022/11/13 11:16:20;;;;;;;58.97;54.17;;;;;;;10.53;100.00;102792.78;5030930;28;20439;-47
2022/11/13 11:18:55;;;;;;;56.97;52.57;;;;;;;10.48;100.00;102789.72;5030111;28;20490;-48
2022/11/13 11:21:29;;;;;;;55.03;50.83;;;;;;;10.37;100.00;102782.72;5038421;28;20430;-46